Disclaimer

Please do not use the information listed here in-flight or in-navigation, as they are not provided to us by the airports but are provided by volunteers, so they might be outdated.

Search


Regions


Airport information page

Radio informations:
Tower (TWR) - 118.0 MHz
OPS - 122.5 MHz
Ground (GND) - 121.65 MHz
Automatic Terminal Information Service (ATIS) - 127.6 MHz
RIO APP - 119.35 MHz

Airport informations:
Latitude: 22° 48' 32.05" S
Longitude: 043° 14' 37.13" W
Elevation: 28 feet - 9 meters
Operating hours: 24 hour operations
Operating agency: Military-civil joint use airport
Timezone: UTC-3(-2DT)
Fuel: Jet A1, without icing nhibitor.

Runway information:
10/28 - 13123 x 148 feet< - >4000 x 45 meters
15/33 - 10433 x 154 feet< - >3180 x 47 meters

Recent METARs:
SBGL 190200Z 02009KT CAVOK 30/20 Q1009
SBGL 190200Z 02009KT CAVOK 30/20 Q1009
SBGL 190300Z 36011KT CAVOK 31/19 Q1009

Airport on the map: